createdAt,value
2019-04-16T00:00:00.460Z,9.34
2019-04-16T00:01:00.506Z,9.38
2019-04-16T00:02:00.282Z,9.48
2019-04-16T00:03:00.235Z,9.35
2019-04-16T00:04:00.220Z,9.42
2019-04-16T00:05:00.211Z,9.59
2019-04-16T00:06:00.207Z,9.55
2019-04-16T00:07:00.211Z,9.49
2019-04-16T00:08:00.172Z,9.44
2019-04-16T00:09:00.163Z,9.52
2019-04-16T00:10:00.151Z,9.48
2019-04-16T00:11:00.143Z,9.48
2019-04-16T00:12:00.157Z,9.35
2019-04-16T00:13:00.119Z,9.34
2019-04-16T00:14:03.026Z,9.31
2019-04-16T00:15:00.097Z,9.19
2019-04-16T00:16:00.087Z,9.22
2019-04-16T00:17:00.106Z,9.19
2019-04-16T00:18:00.149Z,9.04
2019-04-16T00:19:04.145Z,9.08
2019-04-16T00:20:05.669Z,9.06
2019-04-16T00:21:01.030Z,8.91
2019-04-16T00:22:00.043Z,8.98
2019-04-16T00:23:00.005Z,8.86
2019-04-16T00:23:59.996Z,8.88
2019-04-16T00:24:59.984Z,8.75
2019-04-16T00:25:59.971Z,8.78
2019-04-16T00:27:00.112Z,8.70
2019-04-16T00:28:00.835Z,8.79
2019-04-16T00:29:02.035Z,8.75
2019-04-16T00:30:03.873Z,8.79
2019-04-16T00:31:01.024Z,8.64
2019-04-16T00:31:59.909Z,8.60
2019-04-16T00:32:59.925Z,8.68
2019-04-16T00:33:59.890Z,8.63
2019-04-16T00:34:59.876Z,8.57
2019-04-16T00:35:59.864Z,8.57
2019-04-16T00:36:59.864Z,8.57
2019-04-16T00:37:59.860Z,8.55
2019-04-16T00:38:59.826Z,8.57
2019-04-16T00:39:59.818Z,8.47
2019-04-16T00:41:01.087Z,8.42
2019-04-16T00:41:59.790Z,8.36
2019-04-16T00:42:59.812Z,8.29
2019-04-16T00:43:59.770Z,8.17
2019-04-16T00:44:59.762Z,8.17
2019-04-16T00:45:59.748Z,8.12
2019-04-16T00:46:59.736Z,8.00
2019-04-16T00:47:59.767Z,8.04
2019-04-16T00:48:59.712Z,8.06
2019-04-16T00:50:00.074Z,8.03
2019-04-16T00:50:59.882Z,8.00
2019-04-16T00:51:59.883Z,7.89
2019-04-16T00:52:59.890Z,7.79
2019-04-16T00:53:59.655Z,7.88
2019-04-16T00:54:59.645Z,7.81
2019-04-16T00:55:59.633Z,7.74
2019-04-16T00:56:59.620Z,7.79
2019-04-16T00:57:59.617Z,7.82
2019-04-16T00:58:59.624Z,7.79
2019-04-16T00:59:59.599Z,7.70
2019-04-16T01:00:59.653Z,7.70
2019-04-16T01:01:59.567Z,7.63
2019-04-16T01:02:59.560Z,7.66
2019-04-16T01:03:59.570Z,7.66
2019-04-16T01:04:59.538Z,7.62
2019-04-16T01:05:59.520Z,7.51
2019-04-16T01:06:59.509Z,7.54
2019-04-16T01:07:59.502Z,7.55
2019-04-16T01:08:59.515Z,7.51
2019-04-16T01:09:59.479Z,7.29
2019-04-16T01:10:59.469Z,7.39
2019-04-16T01:11:59.453Z,7.29
2019-04-16T01:12:59.443Z,7.24
2019-04-16T01:13:59.455Z,7.19
2019-04-16T01:15:00.928Z,7.23
2019-04-16T01:16:02.497Z,7.07
2019-04-16T01:17:03.899Z,7.15
2019-04-16T01:18:00.385Z,7.14
2019-04-16T01:18:59.397Z,7.09
2019-04-16T01:19:59.363Z,7.04
2019-04-16T01:20:59.367Z,7.05
2019-04-16T01:21:59.339Z,6.99
2019-04-16T01:22:59.329Z,6.96
2019-04-16T01:23:59.341Z,7.00
2019-04-16T01:24:59.307Z,7.04
2019-04-16T01:25:59.367Z,7.01
2019-04-16T01:26:59.495Z,7.01
2019-04-16T01:28:00.770Z,7.00
2019-04-16T01:29:02.929Z,6.83
2019-04-16T01:29:59.255Z,6.96
2019-04-16T01:30:59.240Z,6.82
2019-04-16T01:31:59.231Z,6.76
2019-04-16T01:32:59.224Z,6.83
2019-04-16T01:33:59.230Z,6.72
2019-04-16T01:34:59.199Z,6.68
2019-04-16T01:35:59.183Z,6.68
2019-04-16T01:36:59.182Z,6.71
2019-04-16T01:37:59.166Z,6.72
2019-04-16T01:39:14.986Z,6.69
2019-04-16T01:40:00.171Z,6.73
2019-04-16T01:40:59.127Z,6.72
2019-04-16T01:41:59.124Z,6.71
2019-04-16T01:42:59.104Z,6.75
2019-04-16T01:43:59.095Z,6.69
2019-04-16T01:45:00.556Z,6.61
2019-04-16T01:46:01.278Z,6.63
2019-04-16T01:47:03.372Z,6.60
2019-04-16T01:48:00.235Z,6.63
2019-04-16T01:48:59.038Z,6.53
2019-04-16T01:49:59.303Z,6.55
2019-04-16T01:50:59.094Z,6.46
2019-04-16T01:51:59.003Z,6.46
2019-04-16T01:52:58.991Z,6.45
2019-04-16T01:53:58.982Z,6.42
2019-04-16T01:54:58.993Z,6.42
2019-04-16T01:55:58.965Z,6.46
2019-04-16T01:57:00.001Z,6.36
2019-04-16T01:57:59.682Z,6.38
2019-04-16T01:58:58.930Z,6.33
2019-04-16T01:59:58.941Z,6.32
2019-04-16T02:00:58.903Z,6.30
2019-04-16T02:01:58.889Z,6.28
2019-04-16T02:02:58.877Z,6.25
2019-04-16T02:03:59.031Z,6.25
2019-04-16T02:04:59.011Z,6.28
2019-04-16T02:05:59.181Z,6.20
2019-04-16T02:06:59.044Z,6.24
2019-04-16T02:07:59.927Z,6.30
2019-04-16T02:09:01.872Z,6.28
2019-04-16T02:09:58.829Z,6.35
2019-04-16T02:10:58.785Z,6.35
2019-04-16T02:11:58.775Z,6.36
2019-04-16T02:12:58.768Z,6.38
2019-04-16T02:13:58.753Z,6.38
2019-04-16T02:14:58.780Z,6.39
2019-04-16T02:15:58.732Z,6.39
2019-04-16T02:16:58.717Z,6.32
2019-04-16T02:17:59.570Z,6.25
2019-04-16T02:19:01.310Z,6.27
2019-04-16T02:19:58.780Z,6.21
2019-04-16T02:20:58.696Z,6.24
2019-04-16T02:21:58.660Z,6.11
2019-04-16T02:22:58.649Z,6.13
2019-04-16T02:23:58.639Z,6.01
2019-04-16T02:24:58.637Z,6.02
2019-04-16T02:25:58.637Z,6.05
2019-04-16T02:26:58.604Z,6.08
2019-04-16T02:27:58.590Z,6.02
2019-04-16T02:28:59.070Z,6.06
2019-04-16T02:30:02.734Z,6.03
2019-04-16T02:30:59.584Z,5.96
2019-04-16T02:31:58.561Z,5.99
2019-04-16T02:32:58.534Z,5.98
2019-04-16T02:33:58.531Z,6.02
2019-04-16T02:34:58.510Z,6.01
2019-04-16T02:35:58.524Z,6.02
2019-04-16T02:37:02.198Z,5.96
2019-04-16T02:37:58.477Z,5.98
2019-04-16T02:38:58.466Z,6.02
2019-04-16T02:39:58.459Z,6.01
2019-04-16T02:40:58.467Z,5.95
2019-04-16T02:41:58.717Z,6.05
2019-04-16T02:43:04.182Z,5.96
2019-04-16T02:43:59.407Z,5.99
2019-04-16T02:44:58.395Z,5.96
2019-04-16T02:45:58.836Z,5.95
2019-04-16T02:47:05.327Z,5.98
2019-04-16T02:47:59.361Z,5.99
2019-04-16T02:48:58.351Z,5.99
2019-04-16T02:49:58.339Z,5.98
2019-04-16T02:51:05.273Z,6.01
2019-04-16T02:51:59.341Z,6.08
2019-04-16T02:52:58.331Z,5.99
2019-04-16T02:53:59.834Z,6.02
2019-04-16T02:54:58.314Z,6.13
2019-04-16T02:55:58.266Z,6.16
2019-04-16T02:56:58.280Z,6.14
2019-04-16T02:58:00.071Z,6.17
2019-04-16T02:58:58.239Z,6.17
2019-04-16T02:59:58.222Z,6.16
2019-04-16T03:00:58.212Z,6.14
2019-04-16T03:01:58.231Z,6.16
2019-04-16T03:02:58.186Z,6.08
2019-04-16T03:03:58.180Z,6.08
2019-04-16T03:04:58.952Z,6.08
2019-04-16T03:06:00.649Z,6.02
2019-04-16T03:07:02.723Z,6.11
2019-04-16T03:08:01.538Z,6.14
2019-04-16T03:08:59.127Z,6.14
2019-04-16T03:10:01.381Z,6.30
2019-04-16T03:10:58.096Z,6.27
2019-04-16T03:11:58.112Z,6.17
2019-04-16T03:12:58.083Z,6.30
2019-04-16T03:13:59.296Z,6.27
2019-04-16T03:15:00.847Z,6.33
2019-04-16T03:15:58.038Z,6.33
2019-04-16T03:16:58.033Z,6.33
2019-04-16T03:17:58.049Z,6.43
2019-04-16T03:18:58.007Z,6.48
2019-04-16T03:19:57.998Z,6.51
2019-04-16T03:20:57.990Z,6.54
2019-04-16T03:21:59.125Z,6.54
2019-04-16T03:22:57.982Z,6.68
2019-04-16T03:23:57.948Z,6.65
2019-04-16T03:24:57.937Z,6.58
2019-04-16T03:25:57.926Z,6.58
2019-04-16T03:26:57.917Z,6.64
2019-04-16T03:27:57.926Z,6.68
2019-04-16T03:28:59.110Z,6.53
2019-04-16T03:30:02.914Z,6.54
2019-04-16T03:30:58.872Z,6.48
2019-04-16T03:31:59.532Z,6.51
2019-04-16T03:32:57.877Z,6.40
2019-04-16T03:33:57.834Z,6.42
2019-04-16T03:34:57.832Z,6.39
2019-04-16T03:35:58.589Z,6.38
2019-04-16T03:36:58.601Z,6.38
2019-04-16T03:37:57.813Z,6.30
2019-04-16T03:38:57.784Z,6.36
2019-04-16T03:39:57.764Z,6.35
2019-04-16T03:40:57.753Z,6.33
2019-04-16T03:41:57.743Z,6.28
2019-04-16T03:42:59.353Z,6.27
2019-04-16T03:43:57.719Z,6.28
2019-04-16T03:44:57.716Z,6.25
2019-04-16T03:45:57.707Z,6.14
2019-04-16T03:46:57.685Z,6.13
2019-04-16T03:47:57.702Z,6.08
2019-04-16T03:48:57.664Z,6.13
2019-04-16T03:49:59.488Z,6.10
2019-04-16T03:51:00.440Z,6.02
2019-04-16T03:51:58.626Z,6.06
2019-04-16T03:52:57.639Z,6.03
2019-04-16T03:53:57.609Z,5.98
2019-04-16T03:54:57.595Z,6.03
2019-04-16T03:55:58.263Z,6.03
2019-04-16T03:57:01.805Z,6.03
2019-04-16T03:57:58.562Z,5.95
2019-04-16T03:58:57.571Z,5.98
2019-04-16T04:00:00.638Z,6.02
2019-04-16T04:00:57.527Z,5.92
2019-04-16T04:01:57.516Z,5.90
2019-04-16T04:02:57.513Z,5.92
2019-04-16T04:03:58.450Z,5.98
2019-04-16T04:05:00.826Z,5.85
2019-04-16T04:05:57.469Z,5.92
2019-04-16T04:06:57.460Z,5.93
2019-04-16T04:07:57.447Z,5.93
2019-04-16T04:08:57.460Z,5.96
2019-04-16T04:09:58.824Z,5.92
2019-04-16T04:10:57.415Z,5.95
2019-04-16T04:11:57.406Z,5.93
2019-04-16T04:12:57.390Z,5.92
2019-04-16T04:13:57.403Z,5.98
2019-04-16T04:14:57.371Z,5.92
2019-04-16T04:15:58.570Z,5.96
2019-04-16T04:16:57.454Z,6.01
2019-04-16T04:17:57.334Z,6.01
2019-04-16T04:18:57.366Z,5.98
2019-04-16T04:19:57.313Z,6.02
2019-04-16T04:20:57.304Z,5.98
2019-04-16T04:21:57.293Z,5.93
2019-04-16T04:22:57.910Z,5.93
2019-04-16T04:23:59.723Z,5.90
2019-04-16T04:24:57.281Z,5.88
2019-04-16T04:25:57.246Z,5.87
2019-04-16T04:26:57.237Z,5.78
2019-04-16T04:27:57.226Z,5.75
2019-04-16T04:28:57.210Z,5.63
2019-04-16T04:29:57.434Z,5.70
2019-04-16T04:30:57.641Z,5.63
2019-04-16T04:31:57.178Z,5.55
2019-04-16T04:32:57.166Z,5.52
2019-04-16T04:33:57.158Z,5.42
2019-04-16T04:34:57.170Z,5.48
2019-04-16T04:35:57.142Z,5.59
2019-04-16T04:36:59.677Z,5.41
2019-04-16T04:37:57.110Z,5.48
2019-04-16T04:38:57.106Z,5.55
2019-04-16T04:39:57.143Z,5.52
2019-04-16T04:40:59.710Z,5.48
2019-04-16T04:41:57.273Z,5.56
2019-04-16T04:42:57.662Z,5.59
2019-04-16T04:43:57.049Z,5.59
2019-04-16T04:44:57.058Z,5.51
2019-04-16T04:45:57.026Z,5.47
2019-04-16T04:46:57.015Z,5.45
2019-04-16T04:47:57.006Z,5.49
2019-04-16T04:49:00.060Z,5.47
2019-04-16T04:50:02.893Z,5.44
2019-04-16T04:50:57.964Z,5.45
2019-04-16T04:51:56.958Z,5.56
2019-04-16T04:52:56.956Z,5.45
2019-04-16T04:53:56.935Z,5.49
2019-04-16T04:54:56.948Z,5.49
2019-04-16T04:55:57.267Z,5.44
2019-04-16T04:56:59.323Z,5.52
2019-04-16T04:57:56.892Z,5.55
2019-04-16T04:58:56.883Z,5.59
2019-04-16T04:59:56.898Z,5.62
2019-04-16T05:00:56.857Z,5.60
2019-04-16T05:01:56.845Z,5.59
2019-04-16T05:02:56.837Z,5.55
2019-04-16T05:03:56.820Z,5.58
2019-04-16T05:04:56.834Z,5.56
2019-04-16T05:05:56.799Z,5.59
2019-04-16T05:06:57.218Z,5.51
2019-04-16T05:07:59.727Z,5.63
2019-04-16T05:08:57.558Z,5.59
2019-04-16T05:09:56.767Z,5.63
2019-04-16T05:10:59.793Z,5.56
2019-04-16T05:11:57.738Z,5.67
2019-04-16T05:12:56.728Z,5.65
2019-04-16T05:13:57.107Z,5.65
2019-04-16T05:14:58.672Z,5.65
2019-04-16T05:15:58.401Z,5.65
2019-04-16T05:16:56.685Z,5.58
2019-04-16T05:17:56.669Z,5.59
2019-04-16T05:18:56.656Z,5.58
2019-04-16T05:19:56.641Z,5.52
2019-04-16T05:20:56.676Z,5.58
2019-04-16T05:21:56.622Z,5.60
2019-04-16T05:22:58.105Z,5.52
2019-04-16T05:23:57.600Z,5.55
2019-04-16T05:25:01.045Z,5.59
2019-04-16T05:25:56.597Z,5.59
2019-04-16T05:26:56.589Z,5.58
2019-04-16T05:27:56.555Z,5.59
2019-04-16T05:28:56.554Z,5.55
2019-04-16T05:29:56.543Z,5.55
2019-04-16T05:30:56.545Z,5.52
2019-04-16T05:31:57.262Z,5.63
2019-04-16T05:32:56.498Z,5.66
2019-04-16T05:34:00.636Z,5.65
2019-04-16T05:34:57.477Z,5.74
2019-04-16T05:35:59.331Z,5.80
2019-04-16T05:36:56.475Z,5.69
2019-04-16T05:37:56.442Z,5.85
2019-04-16T05:38:56.535Z,5.85
2019-04-16T05:39:58.803Z,5.95
2019-04-16T05:40:56.451Z,5.95
2019-04-16T05:41:56.400Z,5.99
2019-04-16T05:42:59.018Z,5.98
2019-04-16T05:43:58.494Z,5.99
2019-04-16T05:44:56.374Z,6.08
2019-04-16T05:45:56.354Z,6.02
2019-04-16T05:46:56.367Z,6.13
2019-04-16T05:47:56.344Z,6.20
2019-04-16T05:48:56.337Z,6.33
2019-04-16T05:49:57.959Z,6.38
2019-04-16T05:50:59.750Z,6.45
2019-04-16T05:51:56.316Z,6.64
2019-04-16T05:52:56.288Z,6.71
2019-04-16T05:53:56.273Z,6.72
2019-04-16T05:54:56.258Z,6.76
2019-04-16T05:55:57.519Z,6.87
2019-04-16T05:56:56.258Z,6.99
2019-04-16T05:57:58.192Z,7.05
2019-04-16T05:58:56.212Z,7.05
2019-04-16T05:59:56.204Z,6.99
2019-04-16T06:00:56.198Z,7.07
2019-04-16T06:01:57.470Z,7.12
2019-04-16T06:02:56.193Z,7.14
2019-04-16T06:03:56.159Z,7.23
2019-04-16T06:04:56.564Z,7.32
2019-04-16T06:05:56.290Z,7.30
2019-04-16T06:06:56.129Z,7.48
2019-04-16T06:07:56.136Z,7.48
2019-04-16T06:08:56.216Z,7.55
2019-04-16T06:09:56.091Z,7.52
2019-04-16T06:10:57.653Z,7.62
2019-04-16T06:11:56.065Z,7.74
2019-04-16T06:12:56.087Z,7.79
2019-04-16T06:13:56.046Z,7.74
2019-04-16T06:14:56.074Z,7.82
2019-04-16T06:15:56.025Z,7.86
2019-04-16T06:16:56.747Z,7.82
2019-04-16T06:17:56.020Z,7.82
2019-04-16T06:18:56.087Z,7.91
2019-04-16T06:19:55.979Z,7.95
2019-04-16T06:20:55.964Z,8.06
2019-04-16T06:21:56.668Z,8.13
2019-04-16T06:23:00.650Z,8.03
2019-04-16T06:23:56.933Z,8.18
2019-04-16T06:24:55.914Z,8.18
2019-04-16T06:25:55.902Z,8.25
2019-04-16T06:26:55.912Z,8.27
2019-04-16T06:27:55.905Z,8.25
2019-04-16T06:28:59.711Z,8.29
2019-04-16T06:30:00.797Z,8.27
2019-04-16T06:30:56.848Z,8.31
2019-04-16T06:31:55.836Z,8.42
2019-04-16T06:32:55.851Z,8.45
2019-04-16T06:33:55.814Z,8.46
2019-04-16T06:34:55.817Z,8.46
2019-04-16T06:35:55.793Z,8.55
2019-04-16T06:36:55.778Z,8.58
2019-04-16T06:37:55.774Z,8.60
2019-04-16T06:38:57.792Z,8.67
2019-04-16T06:40:00.700Z,8.71
2019-04-16T06:40:56.742Z,8.71
2019-04-16T06:41:55.723Z,8.70
2019-04-16T06:42:55.717Z,8.73
2019-04-16T06:43:59.549Z,8.76
2019-04-16T06:44:55.694Z,8.82
2019-04-16T06:45:55.678Z,8.88
2019-04-16T06:46:55.670Z,8.89
2019-04-16T06:47:55.657Z,8.96
2019-04-16T06:48:55.667Z,9.06
2019-04-16T06:49:55.633Z,9.08
2019-04-16T06:50:55.622Z,9.16
2019-04-16T06:51:55.613Z,9.10
2019-04-16T06:52:55.614Z,9.16
2019-04-16T06:53:56.861Z,9.26
2019-04-16T06:54:55.583Z,9.22
2019-04-16T06:55:55.567Z,9.27
2019-04-16T06:56:55.558Z,9.26
2019-04-16T06:57:55.566Z,9.32
2019-04-16T06:58:57.482Z,9.26
2019-04-16T06:59:55.546Z,9.30
2019-04-16T07:00:55.514Z,9.27
2019-04-16T07:01:55.513Z,9.40
2019-04-16T07:03:02.197Z,9.37
2019-04-16T07:03:59.667Z,9.38
2019-04-16T07:04:58.328Z,9.52
2019-04-16T07:05:56.452Z,9.59
2019-04-16T07:06:55.440Z,9.52
2019-04-16T07:07:55.431Z,9.68
2019-04-16T07:08:55.422Z,9.62
2019-04-16T07:09:56.974Z,9.65
2019-04-16T07:10:55.397Z,9.75
2019-04-16T07:11:55.395Z,9.75
2019-04-16T07:12:55.422Z,9.75
2019-04-16T07:13:55.365Z,9.73
2019-04-16T07:14:55.376Z,9.93
2019-04-16T07:15:56.961Z,9.96
2019-04-16T07:16:59.763Z,9.98
2019-04-16T07:17:56.315Z,10.02
2019-04-16T07:18:55.306Z,10.11
2019-04-16T07:19:55.322Z,10.10
2019-04-16T07:20:55.286Z,10.22
2019-04-16T07:21:55.306Z,10.20
2019-04-16T07:22:55.262Z,10.32
2019-04-16T07:23:57.979Z,10.31
2019-04-16T07:24:55.363Z,10.31
2019-04-16T07:25:55.231Z,10.42
2019-04-16T07:26:56.635Z,10.46
2019-04-16T07:27:58.065Z,10.55
2019-04-16T07:28:58.572Z,10.58
2019-04-16T07:29:55.370Z,10.60
2019-04-16T07:30:55.805Z,10.72
2019-04-16T07:31:55.168Z,10.76
2019-04-16T07:32:55.167Z,10.80
2019-04-16T07:33:55.146Z,10.78
2019-04-16T07:34:55.132Z,10.86
2019-04-16T07:35:55.145Z,10.80
2019-04-16T07:36:59.902Z,10.84
2019-04-16T07:37:56.315Z,10.98
2019-04-16T07:38:55.080Z,10.98
2019-04-16T07:39:55.073Z,10.98
2019-04-16T07:40:55.083Z,11.01
2019-04-16T07:42:08.638Z,10.99
2019-04-16T07:42:58.980Z,11.08
2019-04-16T07:43:55.192Z,11.06
2019-04-16T07:44:55.952Z,11.06
2019-04-16T07:45:55.142Z,11.05
2019-04-16T07:46:54.990Z,11.06
2019-04-16T07:47:54.983Z,11.16
2019-04-16T07:48:55.670Z,11.08
2019-04-16T07:49:55.910Z,11.03
2019-04-16T07:50:54.971Z,11.16
2019-04-16T07:51:54.940Z,11.19
2019-04-16T07:52:54.946Z,11.19
2019-04-16T07:53:54.928Z,11.30
2019-04-16T07:54:54.899Z,11.27
2019-04-16T07:55:54.911Z,11.27
2019-04-16T07:56:54.878Z,11.36
2019-04-16T07:57:54.867Z,11.44
2019-04-16T07:59:00.040Z,11.46
2019-04-16T07:59:55.849Z,11.54
2019-04-16T08:00:54.855Z,11.56
2019-04-16T08:01:54.840Z,11.56
2019-04-16T08:02:54.829Z,11.67
2019-04-16T08:03:57.455Z,11.60
2019-04-16T08:04:55.799Z,11.63
2019-04-16T08:05:54.799Z,11.77
2019-04-16T08:06:54.763Z,11.78
2019-04-16T08:07:54.754Z,11.78
2019-04-16T08:08:57.150Z,11.84
2019-04-16T08:09:54.742Z,11.81
2019-04-16T08:10:54.731Z,11.88
2019-04-16T08:11:54.733Z,12.00
2019-04-16T08:12:56.887Z,11.98
2019-04-16T08:13:55.686Z,12.03
2019-04-16T08:14:54.674Z,12.08
2019-04-16T08:15:56.735Z,12.11
2019-04-16T08:16:54.667Z,12.16
2019-04-16T08:17:54.641Z,12.23
2019-04-16T08:18:54.633Z,12.26
2019-04-16T08:19:55.543Z,12.30
2019-04-16T08:21:02.375Z,12.34
2019-04-16T08:21:55.866Z,12.37
2019-04-16T08:22:54.586Z,12.37
2019-04-16T08:23:54.574Z,12.43
2019-04-16T08:24:59.631Z,12.51
2019-04-16T08:26:02.349Z,12.59
2019-04-16T08:26:55.619Z,12.55
2019-04-16T08:27:55.030Z,12.63
2019-04-16T08:28:54.540Z,12.59
2019-04-16T08:29:54.506Z,12.74
2019-04-16T08:30:54.496Z,12.70
2019-04-16T08:31:54.505Z,12.73
2019-04-16T08:32:54.471Z,12.70
2019-04-16T08:33:54.460Z,12.73
2019-04-16T08:34:54.453Z,12.77
2019-04-16T08:35:54.437Z,12.76
2019-04-16T08:36:54.448Z,12.84
2019-04-16T08:37:57.800Z,12.85
2019-04-16T08:38:54.403Z,12.89
2019-04-16T08:39:54.390Z,12.94
2019-04-16T08:40:54.394Z,12.89
2019-04-16T08:41:54.389Z,12.92
2019-04-16T08:42:56.956Z,13.03
2019-04-16T08:43:54.343Z,12.99
2019-04-16T08:44:54.335Z,13.10
2019-04-16T08:45:54.323Z,13.14
2019-04-16T08:46:54.365Z,13.35
2019-04-16T08:47:54.300Z,13.43
2019-04-16T08:48:54.662Z,13.51
2019-04-16T08:49:54.962Z,13.62
2019-04-16T08:50:57.943Z,13.65
2019-04-16T08:51:54.295Z,13.62
2019-04-16T08:52:54.307Z,13.76
2019-04-16T08:53:54.234Z,13.79
2019-04-16T08:54:55.006Z,13.83
2019-04-16T08:55:54.234Z,13.87
2019-04-16T08:56:54.224Z,13.91
2019-04-16T08:57:54.266Z,13.94
2019-04-16T08:58:58.390Z,13.94
2019-04-16T08:59:55.168Z,14.02
2019-04-16T09:00:54.164Z,13.94
2019-04-16T09:01:55.135Z,14.12
2019-04-16T09:02:57.821Z,14.12
2019-04-16T09:03:54.122Z,14.19
2019-04-16T09:04:54.111Z,14.26
2019-04-16T09:05:54.098Z,14.21
2019-04-16T09:06:54.196Z,14.26
2019-04-16T09:07:54.072Z,14.29
2019-04-16T09:08:54.061Z,14.36
2019-04-16T09:09:57.038Z,14.46
2019-04-16T09:10:54.039Z,14.56
2019-04-16T09:11:54.052Z,14.66
2019-04-16T09:13:03.283Z,14.72
2019-04-16T09:13:55.018Z,14.79
2019-04-16T09:14:55.964Z,14.79
2019-04-16T09:15:53.981Z,14.82
2019-04-16T09:16:53.975Z,14.86
2019-04-16T09:17:53.985Z,14.90
2019-04-16T09:18:53.952Z,14.94
2019-04-16T09:19:53.937Z,14.95
2019-04-16T09:20:53.925Z,14.94
2019-04-16T09:21:53.919Z,14.91
2019-04-16T09:22:54.670Z,14.97
2019-04-16T09:23:56.264Z,14.97
2019-04-16T09:24:54.912Z,15.01
2019-04-16T09:25:53.916Z,15.01
2019-04-16T09:26:55.724Z,15.11
2019-04-16T09:27:53.875Z,15.18
2019-04-16T09:28:53.843Z,15.23
2019-04-16T09:29:53.824Z,15.27
2019-04-16T09:30:53.832Z,15.34
2019-04-16T09:31:55.435Z,15.33
2019-04-16T09:32:53.831Z,15.38
2019-04-16T09:33:57.108Z,15.40
2019-04-16T09:35:07.488Z,15.59
2019-04-16T09:35:54.757Z,15.66
2019-04-16T09:36:53.746Z,15.73
2019-04-16T09:37:53.931Z,15.86
2019-04-16T09:38:53.747Z,15.89
2019-04-16T09:39:53.714Z,15.96
2019-04-16T09:40:53.699Z,16.06
2019-04-16T09:41:53.709Z,16.11
2019-04-16T09:42:53.683Z,16.22
2019-04-16T09:43:57.042Z,16.16
2019-04-16T09:44:53.652Z,16.23
2019-04-16T09:45:53.642Z,16.27
2019-04-16T09:46:53.661Z,16.30
2019-04-16T09:47:53.622Z,16.29
2019-04-16T09:48:53.631Z,16.32
2019-04-16T09:49:53.599Z,16.37
2019-04-16T09:50:53.590Z,16.41
2019-04-16T09:51:53.574Z,16.60
2019-04-16T09:52:55.484Z,16.65
2019-04-16T09:53:53.621Z,16.70
2019-04-16T09:54:53.546Z,16.81
2019-04-16T09:55:53.530Z,16.78
2019-04-16T09:56:53.521Z,16.84
2019-04-16T09:57:53.508Z,16.80
2019-04-16T09:58:53.521Z,16.87
2019-04-16T09:59:53.482Z,17.00
2019-04-16T10:00:53.474Z,17.02
2019-04-16T10:01:53.681Z,16.99
2019-04-16T10:02:55.111Z,17.10
2019-04-16T10:03:53.851Z,17.15
2019-04-16T10:04:53.425Z,17.15
2019-04-16T10:05:53.439Z,17.21
2019-04-16T10:06:53.406Z,17.27
2019-04-16T10:07:53.405Z,17.25
2019-04-16T10:08:56.472Z,17.36
2019-04-16T10:09:54.515Z,17.38
2019-04-16T10:10:53.376Z,17.43
2019-04-16T10:11:53.422Z,17.53
2019-04-16T10:12:53.339Z,17.65
2019-04-16T10:13:53.338Z,17.71
2019-04-16T10:14:53.361Z,17.66
2019-04-16T10:15:55.687Z,17.73
2019-04-16T10:16:53.298Z,17.89
2019-04-16T10:17:53.278Z,17.91
2019-04-16T10:18:53.288Z,18.01
2019-04-16T10:19:53.321Z,17.98
2019-04-16T10:20:53.246Z,17.99
2019-04-16T10:21:54.342Z,18.01
2019-04-16T10:22:53.278Z,18.07
2019-04-16T10:23:53.213Z,18.14
2019-04-16T10:24:53.227Z,18.29
2019-04-16T10:25:53.210Z,18.23
2019-04-16T10:26:53.207Z,18.29
2019-04-16T10:27:53.169Z,18.38
2019-04-16T10:28:53.169Z,18.35
2019-04-16T10:29:53.226Z,18.44
2019-04-16T10:30:53.159Z,18.42
2019-04-16T10:31:53.144Z,18.44
2019-04-16T10:32:53.119Z,18.50
2019-04-16T10:33:53.118Z,18.64
2019-04-16T10:34:53.143Z,18.71
2019-04-16T10:35:53.102Z,18.72
2019-04-16T10:36:53.064Z,18.74
2019-04-16T10:37:53.084Z,18.89
2019-04-16T10:38:53.064Z,18.89
2019-04-16T10:39:53.068Z,18.87
2019-04-16T10:40:53.021Z,19.02
2019-04-16T10:41:56.185Z,18.97
2019-04-16T10:42:53.034Z,19.05
2019-04-16T10:43:52.989Z,19.05
2019-04-16T10:44:53.018Z,19.21
2019-04-16T10:45:52.974Z,19.28
2019-04-16T10:46:52.972Z,19.45
2019-04-16T10:47:53.193Z,19.50
2019-04-16T10:48:52.929Z,19.57
2019-04-16T10:49:52.927Z,19.64
2019-04-16T10:50:53.262Z,19.58
2019-04-16T10:51:52.918Z,19.55
2019-04-16T10:52:55.678Z,19.58
2019-04-16T10:53:52.884Z,19.71
2019-04-16T10:54:52.874Z,19.60
2019-04-16T10:55:52.887Z,19.75
2019-04-16T10:56:56.834Z,19.86
2019-04-16T10:57:52.926Z,20.04
2019-04-16T10:58:52.946Z,20.16
2019-04-16T10:59:52.829Z,20.26
2019-04-16T11:00:52.823Z,20.30
2019-04-16T11:01:52.789Z,20.38
2019-04-16T11:02:52.794Z,20.53
2019-04-16T11:03:52.760Z,20.63
2019-04-16T11:04:52.782Z,20.76
2019-04-16T11:05:56.861Z,20.81
2019-04-16T11:06:52.794Z,20.82
2019-04-16T11:07:52.807Z,20.91
2019-04-16T11:08:52.715Z,21.03
2019-04-16T11:09:52.709Z,20.94
2019-04-16T11:10:52.746Z,20.96
2019-04-16T11:11:52.675Z,21.00
2019-04-16T11:12:52.682Z,20.90
2019-04-16T11:13:59.987Z,20.75
2019-04-16T11:14:53.650Z,20.71
2019-04-16T11:15:52.672Z,20.71
2019-04-16T11:16:52.649Z,20.73
2019-04-16T11:17:52.715Z,20.98
2019-04-16T11:18:54.968Z,21.00
2019-04-16T11:19:54.221Z,21.27
2019-04-16T11:20:52.608Z,21.31
2019-04-16T11:21:52.593Z,21.43
2019-04-16T11:22:52.577Z,21.45
2019-04-16T11:23:52.564Z,21.37
2019-04-16T11:24:52.529Z,21.53
2019-04-16T11:25:52.523Z,21.45
2019-04-16T11:26:52.541Z,21.30
2019-04-16T11:27:52.498Z,21.12
2019-04-16T11:28:52.487Z,20.96
2019-04-16T11:29:52.471Z,20.85
2019-04-16T11:30:52.494Z,20.66
2019-04-16T11:31:52.493Z,20.64
2019-04-16T11:32:53.446Z,20.58
2019-04-16T11:33:52.442Z,20.68
2019-04-16T11:34:52.421Z,20.66
2019-04-16T11:35:53.039Z,20.69
2019-04-16T11:36:52.440Z,20.64
2019-04-16T11:37:52.442Z,20.72
2019-04-16T11:38:52.369Z,20.85
2019-04-16T11:39:52.386Z,20.93
2019-04-16T11:40:52.352Z,21.06
2019-04-16T11:41:52.375Z,21.01
2019-04-16T11:42:52.329Z,21.09
2019-04-16T11:43:52.317Z,21.33
2019-04-16T11:44:52.335Z,21.43
2019-04-16T11:45:52.329Z,21.51
2019-04-16T11:46:52.336Z,21.43
2019-04-16T11:47:52.265Z,21.31
2019-04-16T11:48:52.279Z,21.19
2019-04-16T11:49:52.248Z,21.15
2019-04-16T11:50:52.234Z,21.28
2019-04-16T11:51:52.252Z,21.42
2019-04-16T11:52:57.205Z,21.53
2019-04-16T11:53:54.073Z,21.63
2019-04-16T11:54:52.245Z,21.81
2019-04-16T11:55:52.176Z,21.90
2019-04-16T11:56:52.224Z,22.01
2019-04-16T11:57:52.203Z,21.83
2019-04-16T11:58:52.142Z,22.05
2019-04-16T12:00:06.092Z,21.99
2019-04-16T12:00:53.143Z,22.05
2019-04-16T12:01:52.113Z,21.98
2019-04-16T12:02:52.161Z,21.66
2019-04-16T12:03:55.836Z,21.70
2019-04-16T12:04:55.929Z,21.71
2019-04-16T12:05:53.064Z,21.71
2019-04-16T12:06:52.131Z,21.74
2019-04-16T12:07:52.073Z,21.94
2019-04-16T12:08:52.031Z,21.98
2019-04-16T12:09:52.052Z,21.86
2019-04-16T12:10:52.066Z,21.70
2019-04-16T12:11:52.041Z,21.63
2019-04-16T12:12:52.047Z,21.36
2019-04-16T12:13:51.999Z,21.46
2019-04-16T12:14:51.997Z,21.61
2019-04-16T12:15:52.001Z,21.64
2019-04-16T12:16:51.941Z,21.71
2019-04-16T12:17:51.954Z,21.91
2019-04-16T12:18:51.980Z,22.06
2019-04-16T12:19:51.909Z,22.08
2019-04-16T12:20:51.918Z,22.05
2019-04-16T12:21:51.886Z,22.01
2019-04-16T12:22:51.941Z,22.05
2019-04-16T12:23:51.865Z,22.08
2019-04-16T12:24:51.856Z,22.21
2019-04-16T12:25:51.893Z,22.35
2019-04-16T12:26:51.829Z,22.36
2019-04-16T12:27:51.885Z,22.39
2019-04-16T12:28:51.831Z,22.30
2019-04-16T12:29:51.869Z,22.31
2019-04-16T12:30:51.786Z,22.23
2019-04-16T12:31:51.817Z,22.21
2019-04-16T12:32:51.806Z,22.23
2019-04-16T12:33:51.792Z,22.08
2019-04-16T12:34:51.782Z,22.08
2019-04-16T12:35:51.733Z,21.98
2019-04-16T12:36:51.721Z,21.91
2019-04-16T12:37:51.745Z,21.94
2019-04-16T12:38:51.761Z,21.74
2019-04-16T12:39:51.698Z,22.01
2019-04-16T12:40:51.739Z,21.91
2019-04-16T12:41:51.697Z,21.85
2019-04-16T12:42:51.695Z,21.86
2019-04-16T12:43:51.815Z,22.05
2019-04-16T12:44:51.684Z,22.06
2019-04-16T12:45:53.560Z,22.15
2019-04-16T12:46:51.648Z,22.24
2019-04-16T12:47:51.593Z,22.23
2019-04-16T12:48:51.608Z,22.29
2019-04-16T12:49:51.570Z,22.31
2019-04-16T12:50:51.563Z,22.33
2019-04-16T12:51:51.601Z,22.15
2019-04-16T12:52:51.913Z,22.24
2019-04-16T12:53:53.397Z,22.29
2019-04-16T12:54:51.517Z,22.45
2019-04-16T12:55:51.524Z,22.30
2019-04-16T12:56:51.581Z,22.20
2019-04-16T12:57:51.504Z,22.19
2019-04-16T12:58:51.498Z,22.27
2019-04-16T12:59:54.789Z,22.39
2019-04-16T13:00:51.461Z,22.54
2019-04-16T13:01:51.439Z,22.72
2019-04-16T13:02:51.427Z,22.74
2019-04-16T13:03:52.587Z,22.74
2019-04-16T13:04:51.415Z,22.72
2019-04-16T13:05:54.007Z,22.74